Tallevast, Florida
Current Conditions -  °F | °C
As of 1:53 AM on Monday 22 Dec 2014 (Local Time) from KSRQ Reporting Station
Light Rain Light Rain  
Wind Chill: 69°   Ceiling: 9500
Heat Index: 69°   Visibility: 10mi
Dew Point: 67°   Wind: 9mph
Humidity: 93%   Direction: 140°SE
Pressure: 29.98"   Gusts: NA
Location:  27.4°N, 82.54°W
Report Text: KSRQ 220653Z AUTO 14008KT 10SM -RA FEW026 SCT041 BKN095 21/19 A2998 RMK AO2 RAB0556 SLP151 P0001 T02060194
Loading
Personal Weather Stations






























Interactive Weather Map New forecast layout! Learn more

10-Day Weather Forecast

Advertisements
Track Severe Weather on mobile